Time;durP1;ratioP1;P1;durP2;ratioP2;P2;SDS_P1;SDS_P2;PMS_P1;PMS_P2;Temp;Humidity;BMP_temperature;BMP_pressure;BME280_temperature;BME280_humidity;BME280_pressure;Samples;Min_cycle;Max_cycle;Signal;HPM_P1;HPM_P2
2021/03/27 00:01:06;;;;;;;8.03;6.20;;;12.10;65.60;;;;;;4988406;28;20457;-44
2021/03/27 00:03:42;;;;;;;6.80;6.10;;;12.10;65.80;;;;;;5001270;28;20466;-44
2021/03/27 00:06:46;;;;;;;7.90;7.10;;;12.00;65.80;;;;;;4985725;28;20464;-44
2021/03/27 00:09:30;;;;;;;15.30;8.20;;;12.00;66.00;;;;;;4972367;28;20492;-44
2021/03/27 00:12:06;;;;;;;8.30;7.13;;;12.00;66.00;;;;;;5002310;28;20445;-44
2021/03/27 00:15:17;;;;;;;10.90;7.93;;;12.00;66.10;;;;;;4984754;28;20441;-45
2021/03/27 00:17:58;;;;;;;18.60;8.00;;;12.00;66.10;;;;;;4984979;28;20486;-44
2021/03/27 00:20:43;;;;;;;13.23;9.57;;;12.00;66.00;;;;;;4984111;28;20540;-45
2021/03/27 00:23:18;;;;;;;14.60;9.90;;;12.00;66.10;;;;;;4989643;28;20461;-45
2021/03/27 00:25:53;;;;;;;20.93;9.70;;;12.00;66.00;;;;;;4988460;28;20457;-44
2021/03/27 00:28:32;;;;;;;12.30;9.50;;;12.00;65.90;;;;;;4990939;28;20449;-44
2021/03/27 00:31:07;;;;;;;13.47;8.80;;;12.00;65.90;;;;;;4988215;28;20489;-44
2021/03/27 00:33:37;;;;;;;13.83;9.23;;;12.10;66.00;;;;;;4988895;28;20540;-44
2021/03/27 00:36:16;;;;;;;12.47;9.10;;;12.00;66.00;;;;;;4988348;28;20486;-45
2021/03/27 00:38:50;;;;;;;12.20;8.10;;;12.00;66.10;;;;;;5007237;28;20488;-44
2021/03/27 00:41:24;;;;;;;14.07;8.90;;;12.10;66.00;;;;;;4986477;28;20803;-44
2021/03/27 00:44:04;;;;;;;10.07;8.00;;;12.10;65.80;;;;;;4990427;28;20460;-44
2021/03/27 00:46:32;;;;;;;15.03;9.23;;;12.10;65.70;;;;;;4988569;28;20560;-44
2021/03/27 00:49:05;;;;;;;13.63;8.53;;;12.10;65.70;;;;;;4988680;28;20904;-44
2021/03/27 00:51:40;;;;;;;14.47;11.00;;;12.20;65.80;;;;;;4986635;28;20457;-44
2021/03/27 00:54:24;;;;;;;19.77;9.80;;;12.20;65.70;;;;;;4988002;28;20445;-44
2021/03/27 00:57:02;;;;;;;14.60;9.80;;;12.20;65.80;;;;;;4987835;28;20972;-42
2021/03/27 00:59:40;;;;;;;16.00;9.67;;;12.20;65.90;;;;;;4991127;28;20555;-42
2021/03/27 01:02:13;;;;;;;12.47;10.07;;;12.20;65.90;;;;;;4990904;28;20834;-42
2021/03/27 01:04:42;;;;;;;13.83;9.50;;;12.20;66.00;;;;;;5003769;28;20485;-41
2021/03/27 01:07:13;;;;;;;11.80;9.00;;;12.20;66.10;;;;;;4990636;28;20457;-41
2021/03/27 01:09:55;;;;;;;9.53;7.33;;;12.20;66.10;;;;;;4989927;28;21268;-41
2021/03/27 01:12:31;;;;;;;13.13;9.13;;;12.20;66.20;;;;;;4986874;28;20461;-41
2021/03/27 01:15:07;;;;;;;11.03;6.50;;;12.20;66.00;;;;;;4988501;28;20544;-41
2021/03/27 01:17:38;;;;;;;11.10;6.23;;;12.20;66.00;;;;;;4985955;28;20483;-41
2021/03/27 01:20:12;;;;;;;8.17;6.73;;;12.30;65.80;;;;;;5010700;28;20509;-41
2021/03/27 01:22:40;;;;;;;7.70;5.97;;;12.30;66.00;;;;;;4987228;28;20474;-41
2021/03/27 01:25:07;;;;;;;9.17;5.97;;;12.40;65.90;;;;;;4990785;28;20472;-41
2021/03/27 01:27:54;;;;;;;9.70;6.00;;;12.40;65.80;;;;;;4986589;28;20457;-41
2021/03/27 01:30:39;;;;;;;8.10;5.93;;;12.40;65.80;;;;;;4985940;28;21124;-40
2021/03/27 01:33:37;;;;;;;6.50;5.80;;;12.50;65.80;;;;;;4989096;28;20461;-40
2021/03/27 01:36:18;;;;;;;9.97;6.00;;;12.50;65.70;;;;;;4976669;28;20960;-41
2021/03/27 01:38:56;;;;;;;6.80;5.60;;;12.50;66.50;;;;;;4984181;28;20455;-41
2021/03/27 01:41:27;;;;;;;7.53;6.00;;;12.50;68.40;;;;;;4988124;28;20461;-40
2021/03/27 01:44:12;;;;;;;8.47;5.33;;;12.50;69.30;;;;;;4986828;28;20552;-40
2021/03/27 01:46:53;;;;;;;9.30;6.80;;;12.50;69.90;;;;;;4986169;28;20457;-41
2021/03/27 01:49:30;;;;;;;8.93;6.40;;;12.50;69.90;;;;;;5005720;28;20497;-40
2021/03/27 01:52:00;;;;;;;6.50;5.03;;;12.40;70.40;;;;;;4987836;28;20462;-41
2021/03/27 01:54:28;;;;;;;7.10;6.00;;;12.40;69.70;;;;;;4986628;28;21531;-40
2021/03/27 01:57:18;;;;;;;5.80;5.03;;;12.30;69.20;;;;;;4988220;28;20831;-40
2021/03/27 02:00:13;;;;;;;8.00;5.20;;;12.20;69.40;;;;;;4985270;28;20449;-41
2021/03/27 02:02:39;;;;;;;7.27;6.37;;;12.20;69.50;;;;;;4982751;28;20472;-41
2021/03/27 02:05:18;;;;;;;7.67;5.63;;;12.10;69.70;;;;;;4989663;28;20492;-41
2021/03/27 02:07:56;;;;;;;6.40;5.80;;;12.10;69.50;;;;;;4988419;28;20449;-41
2021/03/27 02:10:25;;;;;;;8.23;6.63;;;12.10;69.30;;;;;;4988772;28;20489;-41
2021/03/27 02:12:57;;;;;;;8.77;6.33;;;12.10;69.50;;;;;;5006119;28;20576;-41
2021/03/27 02:15:39;;;;;;;9.17;7.10;;;12.10;69.60;;;;;;4984935;28;20848;-41
2021/03/27 02:18:31;;;;;;;9.40;6.70;;;12.10;69.30;;;;;;4989937;28;20982;-41
2021/03/27 02:21:35;;;;;;;8.47;6.80;;;12.00;69.30;;;;;;4983648;28;20478;-41
2021/03/27 02:24:09;;;;;;;8.07;6.80;;;12.10;69.10;;;;;;5006702;28;20969;-41
2021/03/27 02:26:59;;;;;;;7.60;6.33;;;12.00;69.00;;;;;;5002132;28;20744;-41
2021/03/27 02:29:38;;;;;;;6.30;5.63;;;12.00;68.70;;;;;;4985639;28;20485;-41
2021/03/27 02:32:09;;;;;;;6.33;5.43;;;12.00;68.70;;;;;;4988657;28;20457;-41
2021/03/27 02:34:58;;;;;;;14.10;4.73;;;12.00;68.50;;;;;;5002144;28;20457;-41
2021/03/27 02:37:32;;;;;;;7.60;5.40;;;12.00;68.40;;;;;;4987984;28;20592;-41
2021/03/27 02:40:24;;;;;;;7.43;5.40;;;12.00;68.60;;;;;;4986393;28;21044;-41
2021/03/27 02:43:03;;;;;;;6.00;4.90;;;12.00;68.70;;;;;;4988247;28;20457;-41
2021/03/27 02:45:47;;;;;;;6.17;5.10;;;12.00;68.70;;;;;;4983443;28;20954;-40
2021/03/27 02:48:33;;;;;;;6.13;4.70;;;12.00;68.60;;;;;;4985003;28;20453;-41
2021/03/27 02:51:38;;;;;;;5.53;3.70;;;11.90;68.40;;;;;;4987276;28;20528;-40
2021/03/27 02:54:33;;;;;;;4.10;3.63;;;11.90;67.60;;;;;;4998410;28;20450;-40
2021/03/27 02:57:04;;;;;;;4.13;2.97;;;11.80;67.10;;;;;;4936482;28;20487;-41
2021/03/27 02:59:49;;;;;;;2.30;2.10;;;11.80;66.70;;;;;;4986351;28;20468;-41
2021/03/27 03:02:18;;;;;;;2.10;1.90;;;11.70;66.30;;;;;;4986940;28;20472;-41
2021/03/27 03:04:48;;;;;;;2.53;2.00;;;11.60;66.50;;;;;;4984417;28;20465;-40
2021/03/27 03:07:46;;;;;;;1.50;1.40;;;11.60;66.80;;;;;;4988543;28;20544;-41
2021/03/27 03:10:35;;;;;;;1.63;1.23;;;11.50;65.90;;;;;;4977282;28;20493;-41
2021/03/27 03:13:32;;;;;;;1.50;1.07;;;11.40;65.60;;;;;;4989915;28;20453;-41
2021/03/27 03:16:05;;;;;;;1.37;0.87;;;11.30;66.70;;;;;;4986971;28;20821;-41
2021/03/27 03:18:37;;;;;;;0.97;0.87;;;11.20;67.40;;;;;;4983668;28;21093;-41
2021/03/27 03:21:15;;;;;;;1.93;1.10;;;11.10;67.70;;;;;;4985011;28;20473;-41
2021/03/27 03:23:56;;;;;;;1.13;0.80;;;11.00;67.70;;;;;;4982355;28;20554;-41
2021/03/27 03:26:44;;;;;;;0.80;0.60;;;11.00;68.30;;;;;;4983690;28;20512;-41
2021/03/27 03:29:35;;;;;;;0.70;0.70;;;10.90;68.30;;;;;;4984459;28;20469;-41
2021/03/27 03:32:15;;;;;;;0.70;0.63;;;10.90;68.30;;;;;;4988572;28;20472;-41
2021/03/27 03:35:07;;;;;;;0.67;0.60;;;10.80;67.60;;;;;;4998786;28;20497;-41
2021/03/27 03:38:10;;;;;;;1.73;0.70;;;10.70;65.30;;;;;;4985263;28;20465;-40
2021/03/27 03:40:55;;;;;;;2.70;0.40;;;10.60;64.30;;;;;;4982153;28;20501;-40
2021/03/27 03:43:27;;;;;;;0.40;0.30;;;10.50;64.40;;;;;;4987718;28;20472;-41
2021/03/27 03:46:26;;;;;;;0.40;0.30;;;10.30;64.00;;;;;;4984006;28;20468;-40
2021/03/27 03:49:18;;;;;;;0.57;0.30;;;10.30;64.20;;;;;;4986004;28;20469;-41
2021/03/27 03:52:11;;;;;;;0.50;0.33;;;10.30;65.20;;;;;;4984110;28;20976;-41
2021/03/27 03:55:03;;;;;;;0.50;0.37;;;10.20;64.90;;;;;;4986716;28;20847;-42
2021/03/27 03:57:30;;;;;;;1.33;0.30;;;10.20;65.00;;;;;;4999455;28;20461;-41
2021/03/27 04:00:14;;;;;;;0.40;0.30;;;10.20;65.50;;;;;;4988197;28;20825;-41
2021/03/27 04:03:29;;;;;;;3.30;0.50;;;10.10;64.80;;;;;;4987141;28;20460;-41
2021/03/27 04:06:03;;;;;;;0.70;0.40;;;10.00;63.60;;;;;;4975781;28;20487;-41
2021/03/27 04:08:46;;;;;;;2.20;0.40;;;10.00;63.40;;;;;;5000945;28;20564;-40
2021/03/27 04:11:50;;;;;;;0.60;0.40;;;9.90;63.50;;;;;;4985821;28;20472;-40
2021/03/27 04:14:33;;;;;;;1.43;0.43;;;9.80;63.30;;;;;;4986932;28;20961;-41
2021/03/27 04:17:05;;;;;;;0.80;0.60;;;9.70;63.40;;;;;;5001976;28;20488;-40
2021/03/27 04:19:40;;;;;;;0.50;0.47;;;9.60;63.20;;;;;;4983828;28;20917;-40
2021/03/27 04:22:09;;;;;;;1.27;0.40;;;9.50;63.60;;;;;;4983747;28;20469;-40
2021/03/27 04:25:01;;;;;;;0.50;0.47;;;9.50;63.70;;;;;;4988336;28;20559;-41
2021/03/27 04:27:31;;;;;;;0.50;0.40;;;9.40;64.40;;;;;;4985376;28;20463;-40
2021/03/27 04:30:25;;;;;;;0.70;0.43;;;9.40;64.70;;;;;;4986802;28;20489;-40
2021/03/27 04:32:51;;;;;;;0.60;0.40;;;9.40;64.20;;;;;;5001852;28;20940;-40
2021/03/27 04:35:20;;;;;;;0.70;0.50;;;9.30;64.60;;;;;;4985998;28;20472;-41
2021/03/27 04:38:17;;;;;;;4.33;0.50;;;9.30;64.70;;;;;;4986189;28;20894;-41
2021/03/27 04:41:16;;;;;;;1.57;0.40;;;9.20;64.90;;;;;;4988162;28;20520;-41
2021/03/27 04:43:55;;;;;;;1.17;0.40;;;9.20;65.10;;;;;;4958651;28;20457;-40
2021/03/27 04:46:32;;;;;;;2.83;0.60;;;9.20;65.00;;;;;;4986941;28;20556;-40
2021/03/27 04:49:12;;;;;;;1.70;0.50;;;9.20;65.70;;;;;;4987856;28;20957;-40
2021/03/27 04:52:25;;;;;;;0.77;0.50;;;9.20;65.10;;;;;;4989325;28;20457;-40
2021/03/27 04:54:54;;;;;;;1.33;0.50;;;9.10;65.50;;;;;;4943742;28;20612;-40
2021/03/27 04:57:33;;;;;;;2.67;0.67;;;9.00;65.70;;;;;;4946834;28;20851;-40
2021/03/27 05:00:44;;;;;;;4.00;0.40;;;9.00;65.90;;;;;;4968140;28;20516;-40
2021/03/27 05:03:33;;;;;;;1.80;0.70;;;8.90;66.40;;;;;;4925494;29;20467;-40
2021/03/27 05:06:23;;;;;;;0.70;0.57;;;8.80;66.70;;;;;;4928135;29;20848;-40
2021/03/27 05:09:15;;;;;;;0.80;0.50;;;8.70;66.60;;;;;;4975861;28;20457;-41
2021/03/27 05:11:56;;;;;;;0.70;0.63;;;8.70;67.10;;;;;;4987731;28;20483;-40
2021/03/27 05:14:32;;;;;;;0.67;0.40;;;8.60;67.10;;;;;;4991254;28;20833;-40
2021/03/27 05:17:08;;;;;;;3.03;0.47;;;8.60;67.20;;;;;;5005525;28;20486;-41
2021/03/27 05:19:47;;;;;;;0.93;0.40;;;8.50;67.70;;;;;;4986620;28;20522;-41
2021/03/27 05:22:32;;;;;;;0.57;0.50;;;8.50;68.00;;;;;;4989323;28;20465;-40
2021/03/27 05:25:21;;;;;;;3.13;0.70;;;8.50;67.80;;;;;;4989804;28;20457;-41
2021/03/27 05:28:09;;;;;;;4.83;1.23;;;8.50;67.70;;;;;;4986545;28;20476;-41
2021/03/27 05:30:54;;;;;;;0.73;0.53;;;8.50;67.00;;;;;;4989626;28;20469;-40
2021/03/27 05:33:29;;;;;;;0.70;0.60;;;8.40;66.80;;;;;;4989720;28;20453;-40
2021/03/27 05:36:19;;;;;;;3.40;1.00;;;8.40;67.10;;;;;;4982447;28;20461;-40
2021/03/27 05:38:55;;;;;;;0.83;0.57;;;8.40;67.10;;;;;;4986703;28;20457;-40
2021/03/27 05:41:21;;;;;;;1.80;0.50;;;8.40;67.50;;;;;;4988873;28;20457;-40
2021/03/27 05:44:23;;;;;;;0.70;0.50;;;8.40;67.40;;;;;;5003708;28;20469;-40
2021/03/27 05:47:04;;;;;;;1.23;0.60;;;8.50;67.00;;;;;;4950182;28;20487;-40
2021/03/27 05:50:01;;;;;;;2.17;0.73;;;8.50;66.60;;;;;;4985731;28;20579;-40
2021/03/27 05:52:50;;;;;;;1.27;0.70;;;8.50;66.90;;;;;;4990918;28;20460;-40
2021/03/27 05:55:32;;;;;;;0.80;0.63;;;8.50;66.60;;;;;;4989480;28;20496;-41
2021/03/27 05:58:25;;;;;;;0.57;0.57;;;8.50;66.90;;;;;;4988008;28;20462;-41
2021/03/27 06:01:35;;;;;;;0.70;0.50;;;8.60;66.40;;;;;;4986773;28;20463;-40
2021/03/27 06:04:38;;;;;;;0.60;0.40;;;8.60;66.80;;;;;;4978411;28;20538;-40
2021/03/27 06:07:23;;;;;;;3.03;0.60;;;8.60;66.50;;;;;;4991073;28;20465;-41
2021/03/27 06:10:21;;;;;;;1.70;0.77;;;8.70;66.30;;;;;;4986229;28;20501;-41
2021/03/27 06:13:15;;;;;;;2.80;1.07;;;8.70;65.50;;;;;;4986310;28;21069;-41
2021/03/27 06:16:17;;;;;;;4.40;0.87;;;8.70;65.50;;;;;;5003573;28;20469;-41
2021/03/27 06:19:21;;;;;;;1.20;0.80;;;8.70;65.20;;;;;;4985685;28;20555;-40
2021/03/27 06:22:12;;;;;;;1.27;1.07;;;8.70;64.30;;;;;;4990295;28;20453;-41
2021/03/27 06:24:48;;;;;;;2.00;1.03;;;8.70;63.70;;;;;;4986487;28;20492;-40
2021/03/27 06:27:33;;;;;;;1.60;0.80;;;8.60;63.40;;;;;;4988611;28;20454;-40
2021/03/27 06:30:28;;;;;;;1.93;1.20;;;8.60;63.10;;;;;;4989841;28;20497;-40
2021/03/27 06:33:03;;;;;;;2.63;0.90;;;8.50;62.90;;;;;;4990253;28;20445;-40
2021/03/27 06:35:42;;;;;;;3.80;1.50;;;8.50;63.10;;;;;;5003447;28;20578;-41
2021/03/27 06:38:11;;;;;;;2.17;1.50;;;8.40;63.40;;;;;;4988676;28;20464;-41
2021/03/27 06:41:02;;;;;;;2.77;1.30;;;8.40;63.60;;;;;;4988536;28;21001;-40
2021/03/27 06:44:03;;;;;;;2.20;1.20;;;8.40;63.40;;;;;;4986076;28;20487;-40
2021/03/27 06:46:51;;;;;;;2.70;1.20;;;8.50;63.50;;;;;;4987258;28;20452;-40
2021/03/27 06:49:42;;;;;;;1.60;1.10;;;8.50;62.40;;;;;;5006428;28;20461;-40
2021/03/27 06:53:09;;;;;;;5.37;1.27;;;8.50;61.70;;;;;;4989398;28;20532;-40
2021/03/27 06:55:57;;;;;;;3.27;1.20;;;8.50;61.20;;;;;;4986967;28;20549;-40
2021/03/27 06:58:45;;;;;;;3.10;1.40;;;8.60;61.30;;;;;;5003725;28;21017;-40
2021/03/27 07:01:54;;;;;;;1.90;1.20;;;8.60;61.50;;;;;;4986775;28;20556;-40
2021/03/27 07:04:48;;;;;;;2.30;2.00;;;8.60;61.40;;;;;;4983476;28;20461;-41
2021/03/27 07:07:28;;;;;;;5.30;0.90;;;8.70;60.70;;;;;;4981842;28;20659;-41
2021/03/27 07:10:32;;;;;;;2.10;1.03;;;8.70;61.00;;;;;;4972146;28;20480;-41
2021/03/27 07:13:24;;;;;;;1.30;1.20;;;8.80;60.30;;;;;;4980473;28;20993;-40
2021/03/27 07:16:20;;;;;;;3.00;1.30;;;8.90;59.70;;;;;;4986244;28;20461;-40
2021/03/27 07:19:01;;;;;;;2.13;1.63;;;8.90;58.50;;;;;;4986806;28;20552;-41
2021/03/27 07:22:07;;;;;;;2.43;1.13;;;8.90;58.00;;;;;;4986135;28;20483;-41
2021/03/27 07:25:04;;;;;;;3.17;1.53;;;8.90;58.50;;;;;;4988488;28;20834;-40
2021/03/27 07:27:58;;;;;;;3.80;1.80;;;9.00;57.10;;;;;;4986611;28;20467;-41
2021/03/27 07:30:45;;;;;;;1.30;1.13;;;9.10;57.00;;;;;;4984296;28;20489;-40
2021/03/27 07:33:50;;;;;;;3.77;2.00;;;9.10;56.70;;;;;;4987563;28;20983;-40
2021/03/27 07:36:38;;;;;;;2.50;1.20;;;9.30;55.90;;;;;;4981875;28;20458;-41
2021/03/27 07:39:32;;;;;;;2.63;1.03;;;9.40;55.60;;;;;;4985936;28;20461;-40
2021/03/27 07:42:35;;;;;;;2.20;1.20;;;9.50;56.10;;;;;;4985628;28;20986;-40
2021/03/27 07:45:27;;;;;;;1.97;1.73;;;9.60;55.70;;;;;;4988236;28;20461;-40
2021/03/27 07:48:23;;;;;;;3.27;1.90;;;9.60;55.30;;;;;;4988274;28;20464;-40
2021/03/27 07:51:02;;;;;;;7.03;2.17;;;9.70;55.40;;;;;;4985676;28;20584;-40
2021/03/27 07:54:06;;;;;;;4.13;1.47;;;9.90;55.20;;;;;;4999132;28;21055;-40
2021/03/27 07:56:41;;;;;;;2.93;1.80;;;10.00;54.80;;;;;;4986864;28;20829;-40
2021/03/27 07:59:30;;;;;;;8.63;1.93;;;10.20;55.00;;;;;;4987583;28;20473;-41
2021/03/27 08:02:25;;;;;;;1.77;1.10;;;10.20;53.80;;;;;;4988774;28;20488;-41
2021/03/27 08:04:57;;;;;;;6.97;2.33;;;10.30;53.50;;;;;;4987787;28;20575;-41
2021/03/27 08:07:42;;;;;;;9.33;1.43;;;10.40;53.70;;;;;;4987706;28;20457;-40
2021/03/27 08:10:09;;;;;;;1.33;1.23;;;10.40;52.80;;;;;;4983307;28;20493;-41
2021/03/27 08:13:04;;;;;;;10.33;2.00;;;10.50;52.60;;;;;;4984675;28;20550;-41
2021/03/27 08:15:42;;;;;;;5.57;1.00;;;10.60;52.30;;;;;;4986045;28;20467;-41
2021/03/27 08:18:38;;;;;;;6.60;1.77;;;10.60;52.50;;;;;;4987577;28;20484;-41
2021/03/27 08:21:13;;;;;;;9.20;1.73;;;10.80;53.30;;;;;;4988922;28;20461;-41
2021/03/27 08:24:00;;;;;;;2.00;1.40;;;11.10;52.60;;;;;;4987112;28;20869;-41
2021/03/27 08:26:42;;;;;;;5.40;1.63;;;11.30;51.80;;;;;;4987281;28;20545;-41
2021/03/27 08:29:45;;;;;;;5.20;1.03;;;11.50;50.40;;;;;;4987820;28;20561;-41
2021/03/27 08:32:51;;;;;;;3.17;1.40;;;11.60;51.20;;;;;;4988183;28;20970;-41
2021/03/27 08:35:41;;;;;;;2.90;1.00;;;11.70;51.10;;;;;;4977669;28;20461;-41
2021/03/27 08:38:27;;;;;;;1.60;1.40;;;11.80;50.60;;;;;;4987903;28;20462;-41
2021/03/27 08:41:20;;;;;;;2.03;1.20;;;12.00;50.60;;;;;;4987802;28;20468;-41
2021/03/27 08:44:15;;;;;;;3.60;1.43;;;12.00;50.50;;;;;;4988637;28;20449;-41
2021/03/27 08:47:32;;;;;;;6.73;1.50;;;12.10;50.90;;;;;;4992236;28;20445;-41
2021/03/27 08:50:16;;;;;;;5.90;1.60;;;12.10;50.60;;;;;;4972018;28;20496;-41
2021/03/27 08:52:54;;;;;;;4.43;1.63;;;12.30;50.70;;;;;;4992901;28;20495;-41
2021/03/27 08:55:51;;;;;;;6.33;1.20;;;12.30;50.20;;;;;;5006993;28;20983;-41
2021/03/27 08:58:53;;;;;;;5.17;1.97;;;12.10;50.50;;;;;;4991857;28;20453;-41
2021/03/27 09:01:45;;;;;;;4.40;2.13;;;12.00;51.70;;;;;;4990645;28;20840;-41
2021/03/27 09:04:30;;;;;;;6.67;1.90;;;11.70;51.90;;;;;;4990752;28;20461;-41
2021/03/27 09:07:23;;;;;;;4.87;1.10;;;11.50;52.60;;;;;;4991224;28;20473;-41
2021/03/27 09:10:18;;;;;;;3.50;1.10;;;11.40;53.90;;;;;;4989409;28;20452;-41
2021/03/27 09:13:04;;;;;;;5.73;1.50;;;11.40;53.10;;;;;;4976253;28;20457;-41
2021/03/27 09:16:21;;;;;;;5.40;1.73;;;11.30;53.30;;;;;;4990257;28;20458;-41
2021/03/27 09:19:12;;;;;;;8.93;1.87;;;11.80;53.30;;;;;;4983619;28;20477;-41
2021/03/27 09:22:19;;;;;;;3.53;1.23;;;12.20;50.50;;;;;;4987181;28;20555;-41
2021/03/27 09:25:07;;;;;;;2.20;1.10;;;12.50;50.80;;;;;;5005679;28;20563;-41
2021/03/27 09:27:56;;;;;;;7.17;2.00;;;13.00;49.40;;;;;;5006556;28;20449;-40
2021/03/27 09:30:41;;;;;;;2.63;1.13;;;13.00;49.10;;;;;;4991208;28;21131;-40
2021/03/27 09:33:59;;;;;;;4.73;1.50;;;12.70;48.70;;;;;;4989700;28;20523;-40
2021/03/27 09:36:40;;;;;;;4.10;1.53;;;12.30;49.70;;;;;;4981714;28;20462;-40
2021/03/27 09:39:15;;;;;;;1.57;1.10;;;12.10;51.00;;;;;;4989150;28;20545;-41
2021/03/27 09:42:01;;;;;;;3.90;1.17;;;11.90;52.20;;;;;;4991120;28;20958;-40
2021/03/27 09:44:39;;;;;;;6.20;1.60;;;11.90;52.20;;;;;;4990470;28;20973;-40
2021/03/27 09:47:35;;;;;;;4.83;1.07;;;12.20;51.10;;;;;;4994012;28;20456;-40
2021/03/27 09:50:27;;;;;;;3.70;0.87;;;12.40;50.80;;;;;;4990606;28;20489;-40
2021/03/27 09:53:08;;;;;;;2.60;1.20;;;12.10;52.70;;;;;;4989728;28;20453;-41
2021/03/27 09:56:01;;;;;;;5.47;1.43;;;11.70;56.30;;;;;;4989130;28;20787;-41
2021/03/27 09:59:18;;;;;;;1.60;0.80;;;11.30;61.70;;;;;;4987969;28;20457;-41
2021/03/27 10:02:07;;;;;;;3.90;0.83;;;10.80;65.30;;;;;;4985629;28;20457;-40
2021/03/27 10:04:43;;;;;;;3.33;1.60;;;10.30;67.80;;;;;;4991035;28;20449;-40
2021/03/27 10:07:40;;;;;;;3.20;1.03;;;9.90;69.90;;;;;;4990501;28;20467;-40
2021/03/27 10:10:38;;;;;;;2.80;1.57;;;9.70;71.90;;;;;;4988545;28;20493;-40
2021/03/27 10:13:31;;;;;;;3.17;1.80;;;9.60;73.40;;;;;;5000838;28;20479;-40
2021/03/27 10:15:59;;;;;;;2.80;1.57;;;9.50;72.30;;;;;;4990283;28;20453;-41
2021/03/27 10:18:57;;;;;;;5.70;1.97;;;9.50;74.10;;;;;;4987546;28;20454;-40
2021/03/27 10:21:28;;;;;;;3.23;1.20;;;9.60;73.40;;;;;;4985693;28;20967;-40
2021/03/27 10:24:03;;;;;;;5.10;2.30;;;9.80;72.90;;;;;;4984427;28;20963;-40
2021/03/27 10:26:58;;;;;;;4.30;1.13;;;9.80;72.60;;;;;;4988743;28;21049;-40
2021/03/27 10:29:49;;;;;;;48.53;8.97;;;10.00;72.80;;;;;;4990005;28;20532;-40
2021/03/27 10:32:30;;;;;;;2.30;1.10;;;10.20;72.30;;;;;;4991154;28;20464;-40
2021/03/27 10:35:02;;;;;;;4.23;1.70;;;10.40;69.00;;;;;;4988768;28;20528;-40
2021/03/27 10:37:40;;;;;;;4.00;1.40;;;10.60;67.30;;;;;;4989809;28;20827;-40
2021/03/27 10:40:25;;;;;;;3.60;1.90;;;10.70;67.40;;;;;;4989383;28;20544;-40
2021/03/27 10:42:57;;;;;;;1.40;0.93;;;11.00;64.00;;;;;;4989571;28;20741;-40
2021/03/27 10:45:26;;;;;;;3.70;1.50;;;11.20;61.70;;;;;;4990259;28;20515;-40
2021/03/27 10:48:05;;;;;;;5.23;2.83;;;11.60;62.50;;;;;;5007727;28;20524;-40
2021/03/27 10:50:50;;;;;;;4.97;1.43;;;11.90;60.60;;;;;;4986600;28;20517;-40
2021/03/27 10:53:34;;;;;;;2.67;1.20;;;12.00;59.80;;;;;;5005385;28;20472;-40
2021/03/27 10:56:38;;;;;;;4.07;1.40;;;12.00;58.10;;;;;;5004390;28;20831;-40
2021/03/27 10:59:23;;;;;;;3.90;1.43;;;11.90;57.70;;;;;;4990521;28;20668;-40
2021/03/27 11:02:28;;;;;;;3.50;1.33;;;11.80;58.10;;;;;;4987471;28;20472;-40
2021/03/27 11:05:28;;;;;;;4.53;1.70;;;11.80;57.70;;;;;;4989045;28;20491;-40
2021/03/27 11:08:19;;;;;;;4.80;1.27;;;11.60;57.10;;;;;;4986307;28;20946;-40
2021/03/27 11:11:10;;;;;;;5.90;1.07;;;11.60;57.50;;;;;;4986566;28;20487;-40
2021/03/27 11:13:55;;;;;;;5.20;1.00;;;11.50;56.60;;;;;;4982862;28;20465;-40
2021/03/27 11:16:43;;;;;;;3.70;1.40;;;11.40;57.60;;;;;;4989348;28;20477;-41
2021/03/27 11:19:17;;;;;;;3.33;1.33;;;11.20;58.00;;;;;;4988558;28;20457;-40
2021/03/27 11:22:05;;;;;;;7.73;1.37;;;11.10;55.40;;;;;;4985637;28;20551;-40
2021/03/27 11:25:01;;;;;;;2.90;1.70;;;11.00;56.10;;;;;;4987273;28;21017;-40
2021/03/27 11:27:53;;;;;;;3.37;1.30;;;11.00;56.30;;;;;;5002137;28;20962;-40
2021/03/27 11:30:34;;;;;;;1.33;0.80;;;11.00;56.30;;;;;;4988051;28;20495;-40
2021/03/27 11:33:19;;;;;;;1.87;0.90;;;10.90;55.90;;;;;;4986599;28;20497;-40
2021/03/27 11:36:02;;;;;;;2.50;0.93;;;10.90;55.70;;;;;;4985865;28;21156;-40
2021/03/27 11:38:33;;;;;;;2.40;1.07;;;10.90;54.80;;;;;;4985582;28;20773;-40
2021/03/27 11:41:00;;;;;;;2.30;1.30;;;11.00;55.10;;;;;;4987967;28;20512;-40
2021/03/27 11:43:39;;;;;;;1.40;0.90;;;11.10;55.10;;;;;;4985383;28;20461;-40
2021/03/27 11:46:27;;;;;;;1.37;0.83;;;11.30;54.90;;;;;;4989392;28;20467;-40
2021/03/27 11:49:04;;;;;;;1.87;1.03;;;11.50;54.40;;;;;;4985849;28;20966;-40
2021/03/27 11:51:45;;;;;;;1.97;1.40;;;11.50;54.10;;;;;;4986953;28;21398;-40
2021/03/27 11:54:34;;;;;;;7.10;1.80;;;11.50;53.20;;;;;;4984116;28;20899;-40
2021/03/27 11:57:09;;;;;;;8.23;3.50;;;11.70;53.90;;;;;;4986589;28;20866;-40
2021/03/27 12:02:57;;;;;;;6.53;3.20;;;11.70;54.10;;;;;;4987659;28;20456;-40
2021/03/27 12:05:59;;;;;;;4.23;1.50;;;11.70;54.70;;;;;;4990000;28;20510;-40
2021/03/27 12:08:39;;;;;;;3.43;1.80;;;11.70;55.60;;;;;;5004039;28;20460;-40
2021/03/27 12:11:16;;;;;;;2.50;1.60;;;11.70;56.00;;;;;;4986011;28;20490;-41
2021/03/27 12:13:45;;;;;;;3.50;1.37;;;11.80;55.40;;;;;;4987683;28;20831;-40
2021/03/27 12:16:35;;;;;;;5.67;1.33;;;11.80;54.40;;;;;;4985888;28;20465;-41
2021/03/27 12:19:23;;;;;;;4.20;1.73;;;11.70;53.60;;;;;;5007602;28;20464;-40
2021/03/27 12:22:01;;;;;;;4.07;1.50;;;11.70;53.70;;;;;;4991318;28;20816;-40
2021/03/27 12:24:41;;;;;;;6.00;1.70;;;11.80;54.20;;;;;;4991576;28;20462;-40
2021/03/27 12:27:37;;;;;;;3.00;1.20;;;12.00;53.70;;;;;;4991252;28;20453;-41
2021/03/27 12:30:25;;;;;;;4.13;1.30;;;12.20;53.20;;;;;;4987970;28;20445;-40
2021/03/27 12:32:56;;;;;;;1.87;1.20;;;12.40;52.30;;;;;;4991215;28;20680;-41
2021/03/27 12:35:36;;;;;;;4.30;1.20;;;12.50;51.40;;;;;;4990714;28;20849;-40
2021/03/27 12:38:08;;;;;;;2.30;1.20;;;12.60;50.30;;;;;;4992642;28;20449;-40
2021/03/27 12:40:43;;;;;;;3.80;1.07;;;12.60;49.60;;;;;;4990938;28;20876;-40
2021/03/27 12:43:16;;;;;;;2.07;1.43;;;12.70;48.90;;;;;;4993319;28;20464;-40
2021/03/27 12:46:00;;;;;;;3.40;1.20;;;12.70;46.60;;;;;;5007970;28;20453;-41
2021/03/27 12:48:51;;;;;;;2.20;1.30;;;12.70;48.80;;;;;;4993308;28;20904;-41
2021/03/27 12:51:41;;;;;;;2.87;1.63;;;12.80;48.70;;;;;;4988665;28;20489;-41
2021/03/27 12:54:30;;;;;;;4.20;1.10;;;12.80;47.60;;;;;;4991281;28;20549;-41
2021/03/27 12:57:31;;;;;;;1.80;1.03;;;12.60;48.10;;;;;;4992383;28;20544;-41
2021/03/27 13:00:06;;;;;;;3.23;1.30;;;12.50;48.30;;;;;;4991482;28;20453;-41
2021/03/27 13:03:03;;;;;;;6.00;1.53;;;12.40;48.50;;;;;;4988394;28;20468;-41
2021/03/27 13:05:35;;;;;;;2.17;1.10;;;12.30;49.80;;;;;;4989674;28;20950;-41
2021/03/27 13:08:30;;;;;;;3.83;1.40;;;12.30;49.80;;;;;;4991328;28;20461;-41
2021/03/27 13:11:21;;;;;;;2.27;1.10;;;12.40;50.60;;;;;;4984484;28;20497;-40
2021/03/27 13:13:51;;;;;;;5.13;1.27;;;12.50;49.60;;;;;;4991016;28;20536;-40
2021/03/27 13:16:43;;;;;;;1.97;1.00;;;12.70;50.10;;;;;;4989505;28;20483;-41
2021/03/27 13:19:27;;;;;;;2.47;1.47;;;12.90;48.70;;;;;;5007192;28;20560;-40
2021/03/27 13:22:09;;;;;;;3.47;1.47;;;13.00;49.00;;;;;;5006503;28;20464;-40
2021/03/27 13:24:35;;;;;;;2.90;1.20;;;13.10;49.10;;;;;;5008993;28;20475;-40
2021/03/27 13:27:24;;;;;;;3.07;0.90;;;13.10;48.30;;;;;;5004010;28;20465;-41
2021/03/27 13:29:54;;;;;;;3.30;0.90;;;13.10;48.30;;;;;;4991017;28;20457;-40
2021/03/27 13:32:25;;;;;;;1.10;1.00;;;13.00;47.50;;;;;;4990341;28;20492;-41
2021/03/27 13:35:07;;;;;;;3.90;1.33;;;13.00;48.50;;;;;;4990957;28;20458;-41
2021/03/27 13:37:37;;;;;;;1.37;0.93;;;13.00;47.80;;;;;;5001843;28;20461;-41
2021/03/27 13:40:18;;;;;;;3.53;1.03;;;13.20;47.70;;;;;;4987280;28;20828;-41
2021/03/27 13:43:07;;;;;;;3.80;0.90;;;13.30;46.80;;;;;;4990206;28;20552;-41
2021/03/27 13:46:11;;;;;;;3.70;1.10;;;13.20;50.00;;;;;;4989538;28;21185;-41
2021/03/27 13:49:02;;;;;;;1.50;1.03;;;12.90;52.50;;;;;;4990699;28;21029;-40
2021/03/27 13:51:32;;;;;;;5.50;1.37;;;12.40;54.60;;;;;;4988246;28;20557;-41
2021/03/27 13:54:29;;;;;;;4.43;1.03;;;12.10;56.90;;;;;;4988859;28;20453;-41
2021/03/27 13:57:17;;;;;;;1.53;0.60;;;11.60;59.50;;;;;;4990104;28;20453;-41
2021/03/27 14:00:01;;;;;;;0.93;0.90;;;11.20;62.80;;;;;;4989592;28;20449;-40
2021/03/27 14:02:52;;;;;;;1.20;0.70;;;10.90;64.60;;;;;;4989111;28;20536;-40
2021/03/27 14:05:24;;;;;;;0.73;0.50;;;10.60;65.90;;;;;;5004286;28;20450;-40
2021/03/27 14:08:13;;;;;;;1.00;0.67;;;10.50;67.00;;;;;;4988813;28;20446;-40
2021/03/27 14:10:41;;;;;;;0.60;0.60;;;10.30;67.20;;;;;;5005114;28;20493;-40
2021/03/27 14:13:20;;;;;;;0.70;0.43;;;10.20;68.20;;;;;;4990941;28;20540;-40
2021/03/27 14:16:04;;;;;;;0.80;0.60;;;10.10;69.20;;;;;;4988292;28;20488;-40
2021/03/27 14:19:07;;;;;;;1.90;0.60;;;10.00;70.60;;;;;;4991045;28;20458;-40
2021/03/27 14:21:49;;;;;;;3.23;0.50;;;10.10;71.10;;;;;;4988044;28;20453;-40
2021/03/27 14:24:37;;;;;;;2.43;0.90;;;10.10;70.60;;;;;;4989740;28;20457;-40